Terminal Aerodrome Forecast
Issued by NWS

Home | Current Version | Previous Version | Text Only | Print | Product List | Glossary On
Versions: 1 2 3 4 5 6 7 8 9 10 11 12 13
663
FTUS42 KTAE 101120
TAFABY
TAF
KABY 101120Z 1012/1112 30006KT P6SM SKC
     FM101500 29015G25KT P6SM SKC
     FM110000 26004KT P6SM SKC=

USA.gov is the U.S. government's official web portal to all federal, state and local government web resources and services.